createdAt,value
2019-02-15T00:01:43.417Z,14.45
2019-02-15T00:04:11.672Z,12.47
2019-02-15T00:06:39.962Z,16.23
2019-02-15T00:09:08.224Z,13.45
2019-02-15T00:11:36.529Z,13.88
2019-02-15T00:14:04.853Z,13.70
2019-02-15T00:16:33.120Z,12.60
2019-02-15T00:19:05.719Z,11.95
2019-02-15T00:21:34.086Z,16.70
2019-02-15T00:24:02.380Z,15.98
2019-02-15T00:26:30.633Z,13.95
2019-02-15T00:28:58.912Z,13.45
2019-02-15T00:31:27.198Z,11.85
2019-02-15T00:33:55.469Z,21.10
2019-02-15T00:36:23.730Z,14.13
2019-02-15T00:38:51.990Z,15.43
2019-02-15T00:41:20.285Z,17.52
2019-02-15T00:43:48.577Z,17.70
2019-02-15T00:46:21.529Z,14.23
2019-02-15T00:48:49.820Z,15.32
2019-02-15T00:51:36.194Z,14.90
2019-02-15T00:54:09.119Z,12.80
2019-02-15T00:56:39.011Z,13.78
2019-02-15T00:59:08.918Z,17.80
2019-02-15T01:01:50.716Z,13.18
2019-02-15T01:04:29.349Z,15.40
2019-02-15T01:07:11.317Z,18.05
2019-02-15T01:09:44.253Z,13.60
2019-02-15T01:12:23.254Z,12.60
2019-02-15T01:14:51.544Z,13.45
2019-02-15T01:17:19.798Z,15.85
2019-02-15T01:19:48.084Z,15.93
2019-02-15T01:22:16.340Z,14.80
2019-02-15T01:24:44.635Z,12.50
2019-02-15T01:27:17.010Z,16.07
2019-02-15T01:29:58.976Z,13.08
2019-02-15T01:32:37.645Z,11.10
2019-02-15T01:35:07.574Z,12.03
2019-02-15T01:37:49.399Z,12.82
2019-02-15T01:40:19.298Z,12.55
2019-02-15T01:42:52.201Z,12.25
2019-02-15T01:45:24.852Z,11.03
2019-02-15T01:47:53.167Z,13.05
2019-02-15T01:50:21.422Z,13.68
2019-02-15T01:52:49.695Z,12.05
2019-02-15T01:55:17.983Z,11.60
2019-02-15T01:57:46.286Z,14.55
2019-02-15T02:00:16.120Z,11.48
2019-02-15T02:02:44.378Z,13.18
2019-02-15T02:05:12.669Z,13.15
2019-02-15T02:07:40.931Z,14.15
2019-02-15T02:10:10.317Z,12.73
2019-02-15T02:12:38.574Z,12.85
2019-02-15T02:15:08.720Z,13.38
2019-02-15T02:17:37.009Z,11.33
2019-02-15T02:20:08.017Z,10.35
2019-02-15T02:22:36.276Z,9.05
2019-02-15T02:25:05.802Z,10.60
2019-02-15T02:27:34.060Z,11.85
2019-02-15T02:30:02.426Z,25.05
2019-02-15T02:32:30.680Z,11.50
2019-02-15T02:34:58.977Z,12.18
2019-02-15T02:37:27.272Z,11.10
2019-02-15T02:39:55.536Z,11.83
2019-02-15T02:42:23.800Z,11.25
2019-02-15T02:44:52.070Z,13.38
2019-02-15T02:47:20.356Z,11.70
2019-02-15T02:49:48.614Z,11.15
2019-02-15T02:52:16.908Z,11.75
2019-02-15T02:54:45.169Z,11.48
2019-02-15T02:57:13.431Z,11.80
2019-02-15T02:59:41.706Z,11.18
2019-02-15T03:02:09.971Z,11.83
2019-02-15T03:04:38.267Z,11.95
2019-02-15T03:07:06.534Z,12.78
2019-02-15T03:09:34.821Z,11.20
2019-02-15T03:12:03.098Z,11.20
2019-02-15T03:14:31.390Z,9.95
2019-02-15T03:16:59.670Z,11.60
2019-02-15T03:19:27.925Z,12.05
2019-02-15T03:21:56.179Z,11.70
2019-02-15T03:24:24.467Z,11.65
2019-02-15T03:26:52.721Z,11.15
2019-02-15T03:29:21.001Z,11.10
2019-02-15T03:31:49.257Z,10.90
2019-02-15T03:34:17.550Z,11.20
2019-02-15T03:36:50.146Z,10.65
2019-02-15T03:39:20.042Z,10.50
2019-02-15T03:41:48.335Z,9.55
2019-02-15T03:44:22.267Z,10.58
2019-02-15T03:46:46.610Z,9.48
2019-02-15T03:49:14.875Z,9.00
2019-02-15T03:51:43.171Z,9.30
2019-02-15T03:54:11.422Z,9.73
2019-02-15T03:56:39.684Z,10.15
2019-02-15T03:59:07.978Z,9.53
2019-02-15T04:01:36.235Z,9.73
2019-02-15T04:04:04.527Z,9.63
2019-02-15T04:06:32.772Z,8.63
2019-02-15T04:09:01.193Z,10.50
2019-02-15T04:11:29.445Z,9.23
2019-02-15T04:13:57.703Z,9.73
2019-02-15T04:16:26.005Z,8.85
2019-02-15T04:18:54.249Z,8.90
2019-02-15T04:21:22.507Z,9.30
2019-02-15T04:23:50.921Z,7.83
2019-02-15T04:26:19.173Z,7.08
2019-02-15T04:28:47.456Z,8.63
2019-02-15T04:31:15.752Z,7.25
2019-02-15T04:33:44.021Z,6.95
2019-02-15T04:36:12.309Z,6.58
2019-02-15T04:38:40.563Z,8.83
2019-02-15T04:41:08.817Z,6.78
2019-02-15T04:43:37.103Z,6.72
2019-02-15T04:46:05.394Z,7.08
2019-02-15T04:48:33.713Z,6.45
2019-02-15T04:51:01.975Z,6.17
2019-02-15T04:53:30.210Z,5.10
2019-02-15T04:55:58.622Z,9.13
2019-02-15T04:58:26.896Z,14.28
2019-02-15T05:00:55.156Z,6.62
2019-02-15T05:03:23.449Z,8.65
2019-02-15T05:05:51.719Z,8.73
2019-02-15T05:08:19.987Z,5.92
2019-02-15T05:10:48.281Z,6.60
2019-02-15T05:13:16.521Z,5.00
2019-02-15T05:15:44.852Z,9.10
2019-02-15T05:18:13.100Z,9.48
2019-02-15T05:20:41.347Z,8.38
2019-02-15T05:23:09.667Z,7.47
2019-02-15T05:25:37.886Z,7.03
2019-02-15T05:28:08.745Z,5.40
2019-02-15T05:30:36.156Z,5.30
2019-02-15T05:33:04.409Z,5.33
2019-02-15T05:35:32.706Z,5.30
2019-02-15T05:38:00.959Z,5.22
2019-02-15T05:40:29.246Z,4.53
2019-02-15T05:42:57.563Z,5.00
2019-02-15T05:45:25.835Z,7.58
2019-02-15T05:47:54.121Z,5.90
2019-02-15T05:50:22.372Z,5.62
2019-02-15T05:52:50.664Z,5.70
2019-02-15T05:55:18.924Z,4.62
2019-02-15T05:57:47.208Z,4.85
2019-02-15T06:00:15.452Z,4.90
2019-02-15T06:02:43.736Z,5.45
2019-02-15T06:05:11.984Z,7.05
2019-02-15T06:07:40.274Z,6.45
2019-02-15T06:10:08.808Z,6.05
2019-02-15T06:12:37.080Z,7.33
2019-02-15T06:15:14.893Z,6.72
2019-02-15T06:17:35.793Z,16.75
2019-02-15T06:20:04.035Z,11.73
2019-02-15T06:22:32.353Z,12.23
2019-02-15T06:25:00.614Z,7.42
2019-02-15T06:27:28.865Z,5.12
2019-02-15T06:29:57.143Z,7.95
2019-02-15T06:32:25.409Z,8.78
2019-02-15T06:34:53.696Z,7.92
2019-02-15T06:37:21.979Z,6.45
2019-02-15T06:39:50.229Z,5.92
2019-02-15T06:42:18.519Z,6.20
2019-02-15T06:44:46.781Z,7.08
2019-02-15T06:47:15.078Z,5.15
2019-02-15T06:49:43.330Z,4.15
2019-02-15T06:52:11.626Z,4.85
2019-02-15T06:54:39.880Z,4.17
2019-02-15T06:57:08.146Z,4.47
2019-02-15T06:59:43.648Z,4.95
2019-02-15T07:02:13.572Z,3.60
2019-02-15T07:04:43.477Z,6.73
2019-02-15T07:07:11.729Z,12.35
2019-02-15T07:09:40.009Z,24.02
2019-02-15T07:12:08.274Z,15.78
2019-02-15T07:14:36.577Z,5.12
2019-02-15T07:17:04.827Z,10.35
2019-02-15T07:19:33.093Z,41.42
2019-02-15T07:22:01.371Z,36.25
2019-02-15T07:24:29.629Z,34.37
2019-02-15T07:26:57.917Z,37.90
2019-02-15T07:29:26.210Z,34.58
2019-02-15T07:31:54.471Z,20.70
2019-02-15T07:34:22.743Z,7.17
2019-02-15T07:36:51.046Z,14.45
2019-02-15T07:39:19.302Z,26.60
2019-02-15T07:41:47.561Z,19.45
2019-02-15T07:44:15.835Z,12.23
2019-02-15T07:46:44.088Z,7.50
2019-02-15T07:49:12.372Z,14.98
2019-02-15T07:51:40.641Z,25.90
2019-02-15T07:54:08.935Z,30.72
2019-02-15T07:56:37.327Z,33.23
2019-02-15T07:59:05.595Z,28.70
2019-02-15T08:01:33.847Z,25.95
2019-02-15T08:04:02.136Z,27.90
2019-02-15T08:06:30.456Z,21.65
2019-02-15T08:08:58.711Z,15.95
2019-02-15T08:11:26.968Z,17.80
2019-02-15T08:13:55.258Z,21.87
2019-02-15T08:16:23.588Z,26.30
2019-02-15T08:18:51.872Z,35.40
2019-02-15T08:21:20.131Z,33.00
2019-02-15T08:23:48.466Z,29.20
2019-02-15T08:26:16.721Z,26.48
2019-02-15T08:28:44.984Z,26.68
2019-02-15T08:31:13.271Z,22.87
2019-02-15T08:33:41.528Z,17.80
2019-02-15T08:36:09.796Z,17.07
2019-02-15T08:38:38.056Z,19.62
2019-02-15T08:41:06.357Z,18.62
2019-02-15T08:43:34.775Z,20.32
2019-02-15T08:46:03.530Z,22.67
2019-02-15T08:48:33.167Z,21.93
2019-02-15T08:51:01.562Z,19.42
2019-02-15T08:53:30.136Z,20.60
2019-02-15T08:55:58.578Z,15.45
2019-02-15T08:58:27.009Z,12.90
2019-02-15T09:00:55.315Z,19.65
2019-02-15T09:03:23.575Z,23.90
2019-02-15T09:05:51.869Z,22.50
2019-02-15T09:08:20.164Z,16.45
2019-02-15T09:10:48.425Z,19.23
2019-02-15T09:13:16.712Z,17.07
2019-02-15T09:15:44.969Z,17.50
2019-02-15T09:18:13.245Z,18.07
2019-02-15T09:20:41.533Z,13.48
2019-02-15T09:23:09.787Z,12.75
2019-02-15T09:25:38.087Z,13.13
2019-02-15T09:28:13.744Z,14.35
2019-02-15T09:30:42.255Z,29.50
2019-02-15T09:33:10.515Z,20.10
2019-02-15T09:35:38.816Z,17.77
2019-02-15T09:38:07.081Z,28.23
2019-02-15T09:40:35.341Z,31.10
2019-02-15T09:43:03.641Z,29.12
2019-02-15T09:45:32.979Z,29.85
2019-02-15T09:48:01.336Z,31.87
2019-02-15T09:50:29.662Z,30.75
2019-02-15T09:52:57.921Z,32.23
2019-02-15T09:55:26.180Z,32.70
2019-02-15T09:57:54.464Z,34.55
2019-02-15T10:00:22.752Z,36.38
2019-02-15T10:02:51.012Z,43.45
2019-02-15T10:05:19.303Z,42.33
2019-02-15T10:07:47.559Z,37.40
2019-02-15T10:10:15.883Z,42.90
2019-02-15T10:12:44.138Z,41.92
2019-02-15T10:15:12.633Z,45.65
2019-02-15T10:17:40.929Z,44.33
2019-02-15T10:20:10.820Z,41.55
2019-02-15T10:22:39.130Z,15.50
2019-02-15T10:25:08.822Z,9.65
2019-02-15T10:27:37.117Z,10.70
2019-02-15T10:30:10.866Z,34.15
2019-02-15T10:32:39.138Z,31.50
2019-02-15T10:35:09.642Z,34.90
2019-02-15T10:37:37.912Z,45.55
2019-02-15T10:40:08.976Z,49.80
2019-02-15T10:42:37.261Z,52.17
2019-02-15T10:45:08.929Z,51.58
2019-02-15T10:47:37.207Z,46.05
2019-02-15T10:50:08.219Z,50.98
2019-02-15T10:52:36.495Z,38.85
2019-02-15T10:55:06.689Z,39.20
2019-02-15T10:57:34.973Z,42.88
2019-02-15T11:00:06.807Z,36.70
2019-02-15T11:02:35.123Z,33.18
2019-02-15T11:05:03.388Z,33.98
2019-02-15T11:07:31.640Z,24.80
2019-02-15T11:09:59.933Z,21.42
2019-02-15T11:12:28.188Z,18.73
2019-02-15T11:14:56.464Z,16.30
2019-02-15T11:17:24.721Z,15.58
2019-02-15T11:19:53.008Z,14.73
2019-02-15T11:22:21.264Z,11.05
2019-02-15T11:24:49.557Z,10.20
2019-02-15T11:27:17.813Z,11.83
2019-02-15T11:29:46.101Z,10.00
2019-02-15T11:32:14.351Z,9.90
2019-02-15T11:34:42.657Z,8.88
2019-02-15T11:37:10.925Z,9.80
2019-02-15T11:39:39.215Z,10.40
2019-02-15T11:42:07.479Z,15.53
2019-02-15T11:44:35.773Z,16.77
2019-02-15T11:47:04.035Z,15.23
2019-02-15T11:49:32.284Z,14.40
2019-02-15T11:52:00.555Z,14.78
2019-02-15T11:54:28.808Z,16.32
2019-02-15T11:56:57.102Z,16.60
2019-02-15T11:59:25.392Z,14.80
2019-02-15T12:01:53.724Z,19.02
2019-02-15T12:04:22.016Z,15.18
2019-02-15T12:06:50.258Z,8.48
2019-02-15T12:09:18.544Z,9.03
2019-02-15T12:11:46.796Z,8.03
2019-02-15T12:14:15.090Z,8.05
2019-02-15T12:16:43.351Z,8.68
2019-02-15T12:19:11.639Z,8.08
2019-02-15T12:21:39.893Z,8.63
2019-02-15T12:24:08.145Z,8.05
2019-02-15T12:26:36.427Z,8.33
2019-02-15T12:29:04.683Z,8.10
2019-02-15T12:31:32.969Z,8.20
2019-02-15T12:34:01.222Z,7.87
2019-02-15T12:36:29.500Z,8.83
2019-02-15T12:38:57.757Z,8.53
2019-02-15T12:41:26.054Z,8.30
2019-02-15T12:43:54.304Z,8.48
2019-02-15T12:46:22.563Z,9.50
2019-02-15T12:48:50.838Z,9.05
2019-02-15T12:51:19.125Z,9.00
2019-02-15T12:53:47.425Z,10.50
2019-02-15T12:56:15.670Z,9.15
2019-02-15T12:58:43.960Z,10.10
2019-02-15T13:01:12.216Z,10.78
2019-02-15T13:03:40.474Z,12.47
2019-02-15T13:06:08.759Z,15.30
2019-02-15T13:08:37.021Z,16.23
2019-02-15T13:11:05.308Z,12.98
2019-02-15T13:13:33.607Z,14.93
2019-02-15T13:16:01.864Z,18.05
2019-02-15T13:18:30.184Z,18.82
2019-02-15T13:20:58.444Z,15.13
2019-02-15T13:23:26.703Z,16.27
2019-02-15T13:25:55.055Z,12.65
2019-02-15T13:28:23.366Z,10.58
2019-02-15T13:30:51.622Z,11.18
2019-02-15T13:33:19.882Z,12.30
2019-02-15T13:35:48.157Z,12.28
2019-02-15T13:38:16.475Z,11.95
2019-02-15T13:40:44.947Z,15.40
2019-02-15T13:43:13.264Z,21.17
2019-02-15T13:45:41.558Z,18.30
2019-02-15T13:48:09.833Z,14.43
2019-02-15T13:50:38.109Z,12.70
2019-02-15T13:53:06.406Z,23.80
2019-02-15T13:55:34.666Z,25.85
2019-02-15T13:58:02.962Z,20.57
2019-02-15T14:00:31.218Z,13.45
2019-02-15T14:02:59.513Z,13.50
2019-02-15T14:05:27.783Z,13.10
2019-02-15T14:07:56.125Z,13.38
2019-02-15T14:10:24.383Z,19.42
2019-02-15T14:12:52.647Z,11.18
2019-02-15T14:15:20.927Z,10.75
2019-02-15T14:17:49.192Z,21.62
2019-02-15T14:20:17.586Z,14.43
2019-02-15T14:22:45.878Z,18.20
2019-02-15T14:25:14.162Z,25.62
2019-02-15T14:27:42.476Z,14.40
2019-02-15T14:30:12.087Z,15.45
2019-02-15T14:32:40.527Z,16.25
2019-02-15T14:35:10.316Z,12.35
2019-02-15T14:37:38.623Z,13.25
2019-02-15T14:40:11.661Z,17.57
2019-02-15T14:42:39.922Z,24.25
2019-02-15T14:45:10.398Z,18.92
2019-02-15T14:47:38.662Z,15.63
2019-02-15T14:50:08.699Z,12.18
2019-02-15T14:52:36.961Z,12.25
2019-02-15T14:55:07.294Z,13.40
2019-02-15T14:57:35.558Z,11.28
2019-02-15T15:00:04.722Z,10.95
2019-02-15T15:02:32.982Z,10.53
2019-02-15T15:05:01.287Z,8.20
2019-02-15T15:07:29.542Z,9.73
2019-02-15T15:09:57.799Z,9.80
2019-02-15T15:12:26.087Z,7.80
2019-02-15T15:14:54.337Z,8.98
2019-02-15T15:17:22.675Z,8.25
2019-02-15T15:19:50.918Z,8.20
2019-02-15T15:22:19.185Z,8.68
2019-02-15T15:24:47.481Z,11.12
2019-02-15T15:27:15.740Z,11.15
2019-02-15T15:29:44.008Z,14.18
2019-02-15T15:32:12.294Z,9.05
2019-02-15T15:34:40.546Z,8.68
2019-02-15T15:37:16.203Z,16.32
2019-02-15T15:39:38.850Z,35.20
2019-02-15T15:42:07.114Z,38.75
2019-02-15T15:44:35.412Z,32.60
2019-02-15T15:47:04.230Z,35.15
2019-02-15T15:49:32.525Z,33.30
2019-02-15T15:52:00.787Z,62.93
2019-02-15T15:54:29.116Z,43.58
2019-02-15T15:56:57.374Z,44.77
2019-02-15T15:59:25.665Z,50.73
2019-02-15T16:01:53.920Z,31.65
2019-02-15T16:04:22.190Z,37.67
2019-02-15T16:06:50.494Z,41.30
2019-02-15T16:09:18.746Z,23.22
2019-02-15T16:11:47.022Z,26.52
2019-02-15T16:14:15.273Z,26.97
2019-02-15T16:16:43.598Z,21.15
2019-02-15T16:19:11.828Z,22.52
2019-02-15T16:21:40.111Z,26.50
2019-02-15T16:24:12.666Z,24.75
2019-02-15T16:26:38.360Z,21.45
2019-02-15T16:29:06.630Z,23.50
2019-02-15T16:31:34.892Z,20.35
2019-02-15T16:34:03.186Z,14.33
2019-02-15T16:36:31.471Z,25.85
2019-02-15T16:38:59.728Z,28.75
2019-02-15T16:41:28.035Z,26.33
2019-02-15T16:43:56.300Z,21.17
2019-02-15T16:46:24.556Z,23.30
2019-02-15T16:48:52.850Z,28.60
2019-02-15T16:51:21.163Z,27.50
2019-02-15T16:53:49.424Z,29.45
2019-02-15T16:56:17.685Z,34.43
2019-02-15T16:58:46.092Z,34.40
2019-02-15T17:01:14.348Z,20.80
2019-02-15T17:03:42.608Z,26.87
2019-02-15T17:06:10.922Z,30.90
2019-02-15T17:08:39.177Z,30.43
2019-02-15T17:11:07.458Z,23.42
2019-02-15T17:13:35.750Z,17.32
2019-02-15T17:16:04.009Z,13.32
2019-02-15T17:18:32.276Z,11.28
2019-02-15T17:21:00.533Z,15.45
2019-02-15T17:23:28.833Z,13.70
2019-02-15T17:25:57.119Z,12.73
2019-02-15T17:28:25.424Z,23.63
2019-02-15T17:30:53.722Z,17.73
2019-02-15T17:33:21.984Z,21.00
2019-02-15T17:35:50.238Z,19.37
2019-02-15T17:38:18.506Z,22.97
2019-02-15T17:40:46.793Z,16.70
2019-02-15T17:43:15.074Z,30.97
2019-02-15T17:45:43.327Z,26.33
2019-02-15T17:48:11.622Z,20.17
2019-02-15T17:50:39.881Z,24.20
2019-02-15T17:53:08.201Z,22.27
2019-02-15T17:55:36.456Z,30.83
2019-02-15T17:58:04.783Z,29.87
2019-02-15T18:00:33.297Z,21.30
2019-02-15T18:03:01.645Z,17.23
2019-02-15T18:05:29.894Z,30.87
2019-02-15T18:07:58.188Z,26.50
2019-02-15T18:10:26.449Z,14.97
2019-02-15T18:12:54.718Z,19.50
2019-02-15T18:15:23.024Z,22.20
2019-02-15T18:17:51.309Z,23.13
2019-02-15T18:20:19.593Z,19.27
2019-02-15T18:22:47.930Z,14.93
2019-02-15T18:25:16.226Z,17.90
2019-02-15T18:27:44.496Z,16.83
2019-02-15T18:30:14.911Z,18.60
2019-02-15T18:32:43.230Z,18.90
2019-02-15T18:35:11.469Z,26.70
2019-02-15T18:37:39.740Z,34.23
2019-02-15T18:40:09.841Z,32.50
2019-02-15T18:42:38.132Z,18.60
2019-02-15T18:45:16.762Z,23.20
2019-02-15T18:47:45.051Z,27.67
2019-02-15T18:50:13.336Z,30.03
2019-02-15T18:52:41.591Z,24.77
2019-02-15T18:55:10.921Z,25.43
2019-02-15T18:57:39.182Z,22.90
2019-02-15T19:00:14.787Z,18.43
2019-02-15T19:02:45.105Z,19.23
2019-02-15T19:05:13.900Z,19.15
2019-02-15T19:07:42.160Z,29.30
2019-02-15T19:10:15.788Z,31.60
2019-02-15T19:12:44.049Z,37.37
2019-02-15T19:15:14.486Z,24.30
2019-02-15T19:17:42.743Z,37.93
2019-02-15T19:20:13.384Z,47.07
2019-02-15T19:22:41.637Z,47.27
2019-02-15T19:25:14.804Z,25.33
2019-02-15T19:27:43.124Z,35.63
2019-02-15T19:30:16.797Z,42.47
2019-02-15T19:32:45.126Z,36.43
2019-02-15T19:35:13.409Z,30.97
2019-02-15T19:37:41.684Z,34.83
2019-02-15T19:40:12.472Z,37.27
2019-02-15T19:42:42.166Z,30.33
2019-02-15T19:45:11.904Z,18.43
2019-02-15T19:47:40.163Z,18.27
2019-02-15T19:50:11.195Z,23.90
2019-02-15T19:52:39.690Z,32.60
2019-02-15T19:55:09.529Z,26.87
2019-02-15T19:57:37.797Z,47.73
2019-02-15T20:00:14.657Z,35.43
2019-02-15T20:02:42.918Z,69.03
2019-02-15T20:05:11.182Z,67.97
2019-02-15T20:07:39.489Z,62.97
2019-02-15T20:10:10.697Z,66.47
2019-02-15T20:12:39.064Z,62.90
2019-02-15T20:15:10.306Z,51.43
2019-02-15T20:17:38.590Z,47.90
2019-02-15T20:20:11.976Z,40.87
2019-02-15T20:22:40.267Z,26.37
2019-02-15T20:25:10.666Z,24.90
2019-02-15T20:27:39.146Z,29.40
2019-02-15T20:30:15.655Z,16.30
2019-02-15T20:32:43.945Z,21.50
2019-02-15T20:35:13.609Z,40.17
2019-02-15T20:37:41.952Z,35.33
2019-02-15T20:40:11.589Z,20.00
2019-02-15T20:42:39.830Z,26.30
2019-02-15T20:45:17.128Z,38.07
2019-02-15T20:47:45.395Z,38.03
2019-02-15T20:50:14.193Z,34.73
2019-02-15T20:52:42.511Z,29.77
2019-02-15T20:55:13.107Z,27.07
2019-02-15T20:57:41.359Z,34.40
2019-02-15T21:00:15.948Z,32.90
2019-02-15T21:02:44.204Z,38.37
2019-02-15T21:05:12.459Z,39.63
2019-02-15T21:07:40.763Z,22.20
2019-02-15T21:10:11.369Z,16.53
2019-02-15T21:12:45.917Z,29.37
2019-02-15T21:15:17.009Z,32.93
2019-02-15T21:17:45.295Z,35.97
2019-02-15T21:20:14.694Z,43.10
2019-02-15T21:22:42.949Z,39.87
2019-02-15T21:25:12.976Z,37.90
2019-02-15T21:27:41.238Z,36.40
2019-02-15T21:30:11.969Z,27.03
2019-02-15T21:32:40.228Z,29.50
2019-02-15T21:35:08.525Z,32.80
2019-02-15T21:37:36.781Z,33.93
2019-02-15T21:40:08.505Z,26.77
2019-02-15T21:43:13.025Z,33.87
2019-02-15T21:45:41.584Z,51.30
2019-02-15T21:48:09.964Z,42.93
2019-02-15T21:50:38.351Z,32.63
2019-02-15T21:53:06.680Z,28.07
2019-02-15T21:55:35.016Z,23.57
2019-02-15T21:58:03.302Z,26.10
2019-02-15T22:00:31.608Z,23.10
2019-02-15T22:03:00.173Z,21.57
2019-02-15T22:05:28.606Z,24.07
2019-02-15T22:07:57.122Z,25.93
2019-02-15T22:10:25.692Z,21.83
2019-02-15T22:12:54.360Z,20.73
2019-02-15T22:15:22.814Z,19.97
2019-02-15T22:17:51.330Z,21.17
2019-02-15T22:20:26.336Z,21.77
2019-02-15T22:22:50.108Z,20.77
2019-02-15T22:25:18.435Z,23.77
2019-02-15T22:27:46.686Z,22.87
2019-02-15T22:30:19.983Z,21.93
2019-02-15T22:32:48.265Z,20.90
2019-02-15T22:35:16.533Z,22.73
2019-02-15T22:37:44.805Z,23.50
2019-02-15T22:40:33.271Z,28.03
2019-02-15T22:43:10.813Z,35.10
2019-02-15T22:45:39.112Z,40.93
2019-02-15T22:48:07.439Z,42.23
2019-02-15T22:50:36.482Z,33.77
2019-02-15T22:53:04.873Z,40.20
2019-02-15T22:55:33.173Z,39.30
2019-02-15T22:58:01.501Z,41.20
2019-02-15T23:00:40.593Z,41.83
2019-02-15T23:03:08.935Z,42.57
2019-02-15T23:05:37.267Z,41.07
2019-02-15T23:08:05.556Z,41.83
2019-02-15T23:10:33.812Z,40.73
2019-02-15T23:13:02.114Z,34.87
2019-02-15T23:15:30.377Z,34.53
2019-02-15T23:17:58.678Z,38.17
2019-02-15T23:20:26.979Z,35.40
2019-02-15T23:22:55.298Z,38.40
2019-02-15T23:25:24.991Z,36.43
2019-02-15T23:27:53.508Z,33.33
2019-02-15T23:30:21.808Z,35.60
2019-02-15T23:32:50.078Z,50.23
2019-02-15T23:35:18.350Z,34.20
2019-02-15T23:37:47.180Z,34.77
2019-02-15T23:40:15.488Z,35.10
2019-02-15T23:42:43.781Z,33.00
2019-02-15T23:45:12.062Z,35.00
2019-02-15T23:47:40.325Z,37.00
2019-02-15T23:50:09.181Z,31.57
2019-02-15T23:52:37.438Z,36.27
2019-02-15T23:55:06.101Z,36.03
2019-02-15T23:57:34.374Z,31.27
